createdAt,value
2018-09-09T00:00:31.603Z,97080.98
2018-09-09T00:03:56.397Z,97085.25
2018-09-09T00:07:21.225Z,97078.55
2018-09-09T00:10:48.343Z,97086.20
2018-09-09T00:14:13.257Z,97083.70
2018-09-09T00:17:38.364Z,97082.42
2018-09-09T00:21:08.234Z,97083.20
2018-09-09T00:24:32.992Z,97085.80
2018-09-09T00:27:57.730Z,97090.28
2018-09-09T00:31:23.684Z,97086.19
2018-09-09T00:34:48.520Z,97083.02
2018-09-09T00:38:13.395Z,97094.06
2018-09-09T00:41:38.252Z,97087.29
2018-09-09T00:45:03.151Z,97090.44
2018-09-09T00:48:28.032Z,97098.64
2018-09-09T00:51:58.324Z,97097.63
2018-09-09T00:55:23.224Z,97100.80
2018-09-09T00:58:48.007Z,97092.83
2018-09-09T01:02:12.953Z,97095.99
2018-09-09T01:05:37.873Z,97107.45
2018-09-09T01:09:02.785Z,97110.05
2018-09-09T01:12:27.847Z,97113.62
2018-09-09T01:15:53.300Z,97112.20
2018-09-09T01:19:18.146Z,97112.05
2018-09-09T01:22:44.571Z,97109.49
2018-09-09T01:26:09.431Z,97117.53
2018-09-09T01:29:34.313Z,97125.13
2018-09-09T01:32:59.409Z,97130.51
2018-09-09T01:36:24.222Z,97132.54
2018-09-09T01:39:49.724Z,97139.43
2018-09-09T01:43:14.766Z,97140.19
2018-09-09T01:46:39.672Z,97135.75
2018-09-09T01:50:04.644Z,97135.14
2018-09-09T01:53:29.453Z,97134.86
2018-09-09T01:56:54.353Z,97135.28
2018-09-09T02:00:19.298Z,97137.48
2018-09-09T02:03:44.255Z,97146.80
2018-09-09T02:07:09.029Z,97132.83
2018-09-09T02:10:33.853Z,97133.27
2018-09-09T02:13:59.206Z,97128.64
2018-09-09T02:17:24.023Z,97133.52
2018-09-09T02:20:48.919Z,97134.84
2018-09-09T02:24:13.781Z,97123.23
2018-09-09T02:27:38.603Z,97127.99
2018-09-09T02:31:03.312Z,97129.96
2018-09-09T02:34:28.077Z,97129.86
2018-09-09T02:37:52.785Z,97136.19
2018-09-09T02:41:17.619Z,97138.61
2018-09-09T02:44:42.524Z,97149.24
2018-09-09T02:48:07.315Z,97157.50
2018-09-09T02:51:32.139Z,97150.29
2018-09-09T02:54:56.950Z,97153.47
2018-09-09T02:58:21.681Z,97152.98
2018-09-09T03:01:46.383Z,97155.43
2018-09-09T03:05:11.249Z,97155.75
2018-09-09T03:08:36.193Z,97157.73
2018-09-09T03:12:00.947Z,97158.95
2018-09-09T03:15:25.841Z,97158.52
2018-09-09T03:18:50.705Z,97164.50
2018-09-09T03:22:15.411Z,97155.16
2018-09-09T03:25:40.280Z,97159.27
2018-09-09T03:29:05.023Z,97162.94
2018-09-09T03:32:29.813Z,97161.69
2018-09-09T03:35:54.615Z,97161.59
2018-09-09T03:39:19.428Z,97160.34
2018-09-09T03:42:44.210Z,97163.13
2018-09-09T03:46:09.039Z,97161.12
2018-09-09T03:49:33.805Z,97159.00
2018-09-09T03:52:58.653Z,97154.35
2018-09-09T03:56:23.405Z,97151.96
2018-09-09T03:59:48.214Z,97157.59
2018-09-09T04:03:12.899Z,97156.71
2018-09-09T04:06:37.641Z,97159.65
2018-09-09T04:10:03.248Z,97158.08
2018-09-09T04:13:27.922Z,97164.56
2018-09-09T04:16:52.662Z,97169.62
2018-09-09T04:20:17.466Z,97162.23
2018-09-09T04:23:42.111Z,97162.23
2018-09-09T04:27:06.807Z,97168.80
2018-09-09T04:30:31.645Z,97179.23
2018-09-09T04:33:56.424Z,97186.36
2018-09-09T04:37:21.177Z,97174.40
2018-09-09T04:40:45.926Z,97179.55
2018-09-09T04:44:12.046Z,97183.22
2018-09-09T04:47:36.990Z,97176.02
2018-09-09T04:51:02.012Z,97180.52
2018-09-09T04:54:26.722Z,97187.67
2018-09-09T04:57:51.452Z,97185.48
2018-09-09T05:01:16.293Z,97185.37
2018-09-09T05:04:40.934Z,97184.23
2018-09-09T05:08:05.708Z,97186.00
2018-09-09T05:11:30.470Z,97178.43
2018-09-09T05:14:55.136Z,97190.41
2018-09-09T05:18:19.790Z,97192.75
2018-09-09T05:21:44.470Z,97195.50
2018-09-09T05:25:09.244Z,97195.03
2018-09-09T05:28:33.929Z,97199.64
2018-09-09T05:31:59.083Z,97209.51
2018-09-09T05:35:23.791Z,97206.52
2018-09-09T05:38:48.515Z,97201.99
2018-09-09T05:42:13.222Z,97199.69
2018-09-09T05:45:38.016Z,97201.84
2018-09-09T05:49:02.855Z,97207.30
2018-09-09T05:52:27.526Z,97213.03
2018-09-09T05:55:52.351Z,97214.53
2018-09-09T05:59:17.032Z,97221.33
2018-09-09T06:02:41.834Z,97215.42
2018-09-09T06:06:06.586Z,97213.80
2018-09-09T06:09:31.328Z,97217.71
2018-09-09T06:12:56.001Z,97213.53
2018-09-09T06:16:20.697Z,97217.11
2018-09-09T06:19:45.425Z,97225.64
2018-09-09T06:23:10.323Z,97226.42
2018-09-09T06:26:35.237Z,97224.64
2018-09-09T06:29:59.997Z,97226.81
2018-09-09T06:33:24.753Z,97228.70
2018-09-09T06:36:49.550Z,97225.05
2018-09-09T06:40:14.364Z,97229.92
2018-09-09T06:43:39.122Z,97230.69
2018-09-09T06:47:03.775Z,97227.67
2018-09-09T06:50:28.458Z,97226.84
2018-09-09T06:53:53.152Z,97229.22
2018-09-09T06:57:17.888Z,97223.88
2018-09-09T07:00:42.726Z,97231.87
2018-09-09T07:04:07.550Z,97229.88
2018-09-09T07:07:32.315Z,97233.05
2018-09-09T07:10:57.140Z,97233.72
2018-09-09T07:14:21.742Z,97236.05
2018-09-09T07:17:46.435Z,97234.70
2018-09-09T07:21:11.140Z,97234.98
2018-09-09T07:24:35.925Z,97235.08
2018-09-09T07:28:00.668Z,97227.01
2018-09-09T07:31:25.514Z,97237.62
2018-09-09T07:34:50.984Z,97238.61
2018-09-09T07:38:15.777Z,97240.64
2018-09-09T07:41:40.770Z,97241.94
2018-09-09T07:45:06.434Z,97240.05
2018-09-09T07:48:31.815Z,97254.86
2018-09-09T07:51:57.319Z,97251.16
2018-09-09T07:55:22.063Z,97256.01
2018-09-09T07:58:47.032Z,97254.78
2018-09-09T08:02:12.610Z,97253.95
2018-09-09T08:07:01.858Z,97255.02
2018-09-09T08:10:27.584Z,97259.20
2018-09-09T08:13:52.389Z,97257.89
2018-09-09T08:17:17.201Z,97263.19
2018-09-09T08:20:42.188Z,97262.48
2018-09-09T08:24:07.482Z,97265.13
2018-09-09T08:27:33.549Z,97267.68
2018-09-09T08:31:00.032Z,97265.91
2018-09-09T08:34:24.845Z,97266.09
2018-09-09T08:37:49.786Z,97267.36
2018-09-09T08:41:14.622Z,97271.83
2018-09-09T08:46:04.210Z,97270.81
2018-09-09T08:49:30.582Z,97261.24
2018-09-09T08:52:55.874Z,97258.48
2018-09-09T08:56:21.234Z,97255.11
2018-09-09T08:59:46.435Z,97262.61
2018-09-09T09:03:11.954Z,97262.80
2018-09-09T09:06:42.601Z,97253.54
2018-09-09T09:10:08.472Z,97252.51
2018-09-09T09:13:34.192Z,97251.45
2018-09-09T09:16:59.605Z,97247.29
2018-09-09T09:20:26.434Z,97251.83
2018-09-09T09:23:51.992Z,97253.73
2018-09-09T09:27:17.508Z,97248.63
2018-09-09T09:30:43.354Z,97248.98
2018-09-09T09:34:08.660Z,97243.84
2018-09-09T09:37:33.998Z,97237.88
2018-09-09T09:41:02.341Z,97236.14
2018-09-09T09:44:27.998Z,97226.26
2018-09-09T09:47:55.737Z,97227.01
2018-09-09T09:51:21.302Z,97224.78
2018-09-09T09:54:46.786Z,97224.84
2018-09-09T09:58:12.107Z,97222.45
2018-09-09T10:01:38.730Z,97217.78
2018-09-09T10:05:04.689Z,97219.98
2018-09-09T10:08:34.814Z,97215.08
2018-09-09T10:12:00.097Z,97213.57
2018-09-09T10:15:25.578Z,97208.62
2018-09-09T10:18:50.869Z,97198.48
2018-09-09T10:22:16.260Z,97198.73
2018-09-09T10:25:42.618Z,97195.25
2018-09-09T10:29:08.016Z,97185.98
2018-09-09T10:32:34.462Z,97189.86
2018-09-09T10:37:23.716Z,97195.72
2018-09-09T10:40:48.586Z,97189.59
2018-09-09T10:44:13.396Z,97182.06
2018-09-09T10:47:38.172Z,97175.73
2018-09-09T10:51:02.962Z,97177.50
2018-09-09T10:54:27.734Z,97177.72
2018-09-09T10:57:52.502Z,97181.79
2018-09-09T11:01:18.162Z,97174.50
2018-09-09T11:04:43.020Z,97167.54
2018-09-09T11:08:07.975Z,97168.77
2018-09-09T11:11:32.758Z,97168.61
2018-09-09T11:14:59.288Z,97161.60
2018-09-09T11:18:24.159Z,97161.70
2018-09-09T11:21:49.479Z,97160.30
2018-09-09T11:25:14.455Z,97161.27
2018-09-09T11:28:40.025Z,97159.13
2018-09-09T11:32:04.883Z,97162.81
2018-09-09T11:35:29.775Z,97158.04
2018-09-09T11:38:54.603Z,97144.88
2018-09-09T11:42:19.379Z,97145.78
2018-09-09T11:49:18.545Z,97142.94
2018-09-09T11:52:43.377Z,97144.22
2018-09-09T11:56:08.312Z,97144.20
2018-09-09T11:59:33.329Z,97142.05
2018-09-09T12:02:58.121Z,97139.81
2018-09-09T12:06:22.960Z,97132.81
2018-09-09T12:09:47.801Z,97138.03
2018-09-09T12:13:12.609Z,97144.14
2018-09-09T12:16:37.772Z,97139.98
2018-09-09T12:20:02.666Z,97139.61
2018-09-09T12:23:27.479Z,97142.17
2018-09-09T12:26:52.268Z,97136.20
2018-09-09T12:30:16.978Z,97132.81
2018-09-09T12:33:41.702Z,97137.41
2018-09-09T12:37:06.592Z,97135.27
2018-09-09T12:40:31.495Z,97136.13
2018-09-09T12:44:01.612Z,97133.36
2018-09-09T12:47:31.667Z,97135.30
2018-09-09T12:50:56.569Z,97125.30
2018-09-09T12:54:21.543Z,97123.79
2018-09-09T12:57:46.773Z,97119.45
2018-09-09T13:01:11.570Z,97111.66
2018-09-09T13:04:36.371Z,97118.48
2018-09-09T13:08:01.602Z,97108.27
2018-09-09T13:11:26.448Z,97112.13
2018-09-09T13:14:51.190Z,97110.39
2018-09-09T13:18:15.980Z,97106.68
2018-09-09T13:21:40.958Z,97105.66
2018-09-09T13:25:05.760Z,97105.14
2018-09-09T13:28:30.560Z,97100.45
2018-09-09T13:31:55.452Z,97104.31
2018-09-09T13:35:20.306Z,97105.22
2018-09-09T13:38:45.080Z,97106.45
2018-09-09T13:42:09.941Z,97105.19
2018-09-09T13:45:34.722Z,97106.28
2018-09-09T13:48:59.607Z,97094.52
2018-09-09T13:52:24.491Z,97089.84
2018-09-09T13:55:49.130Z,97095.27
2018-09-09T13:59:13.935Z,97085.38
2018-09-09T14:02:38.708Z,97082.28
2018-09-09T14:06:03.457Z,97082.37
2018-09-09T14:09:28.226Z,97082.95
2018-09-09T14:12:52.926Z,97077.06
2018-09-09T14:16:17.617Z,97074.13
2018-09-09T14:19:42.618Z,97074.87
2018-09-09T14:23:07.370Z,97068.09
2018-09-09T14:26:32.150Z,97069.47
2018-09-09T14:29:56.833Z,97068.94
2018-09-09T14:33:22.788Z,97064.58
2018-09-09T14:36:47.572Z,97060.45
2018-09-09T14:40:12.402Z,97064.27
2018-09-09T14:43:37.059Z,97063.03
2018-09-09T14:47:01.822Z,97060.71
2018-09-09T14:50:27.030Z,97059.27
2018-09-09T14:53:51.793Z,97066.04
2018-09-09T14:57:16.528Z,97066.91
2018-09-09T15:00:41.293Z,97062.58
2018-09-09T15:04:05.981Z,97061.06
2018-09-09T15:07:30.691Z,97056.96
2018-09-09T15:10:55.413Z,97062.65
2018-09-09T15:14:20.220Z,97062.69
2018-09-09T15:17:45.099Z,97059.84
2018-09-09T15:21:09.862Z,97056.90
2018-09-09T15:24:36.341Z,97057.22
2018-09-09T15:28:01.554Z,97065.27
2018-09-09T15:31:26.478Z,97064.63
2018-09-09T15:34:51.482Z,97064.10
2018-09-09T15:38:16.376Z,97066.78
2018-09-09T15:41:41.303Z,97067.94
2018-09-09T15:45:06.365Z,97053.96
2018-09-09T15:48:31.164Z,97053.27
2018-09-09T15:51:56.033Z,97063.27
2018-09-09T15:55:20.868Z,97063.27
2018-09-09T15:58:45.550Z,97070.91
2018-09-09T16:02:10.360Z,97057.95
2018-09-09T16:05:35.119Z,97064.25
2018-09-09T16:08:59.866Z,97059.77
2018-09-09T16:12:25.752Z,97056.49
2018-09-09T16:15:50.553Z,97058.27
2018-09-09T16:19:15.310Z,97056.65
2018-09-09T16:22:40.127Z,97054.08
2018-09-09T16:26:05.052Z,97056.38
2018-09-09T16:29:29.806Z,97064.20
2018-09-09T16:36:27.574Z,97060.58
2018-09-09T16:39:53.079Z,97055.69
2018-09-09T16:43:17.933Z,97057.39
2018-09-09T16:46:42.862Z,97061.09
2018-09-09T16:50:07.733Z,97053.64
2018-09-09T16:53:32.691Z,97060.91
2018-09-09T16:58:27.582Z,97056.39
2018-09-09T17:01:52.442Z,97059.39
2018-09-09T17:05:17.201Z,97063.89
2018-09-09T17:08:42.515Z,97057.77
2018-09-09T17:12:07.448Z,97061.41
2018-09-09T17:15:32.309Z,97062.20
2018-09-09T17:18:59.441Z,97055.75
2018-09-09T17:22:24.229Z,97054.81
2018-09-09T17:25:49.836Z,97064.56
2018-09-09T17:29:16.503Z,97066.41
2018-09-09T20:47:25.320Z,97198.43
2018-09-09T20:50:50.079Z,97201.16
2018-09-09T20:54:14.845Z,97198.66
2018-09-09T20:57:39.642Z,97202.48
2018-09-09T21:05:35.546Z,97199.50
2018-09-09T21:09:00.350Z,97201.90
2018-09-09T21:12:25.109Z,97198.94
2018-09-09T21:15:50.624Z,97206.69
2018-09-09T21:19:15.603Z,97205.61
2018-09-09T21:22:40.526Z,97211.55
2018-09-09T21:26:05.299Z,97213.52
2018-09-09T21:29:30.522Z,97217.05
2018-09-09T21:32:55.253Z,97217.65
2018-09-09T21:36:20.635Z,97216.59
2018-09-09T21:39:45.463Z,97209.95
